Aérodrome :
LOGIN :

S'inscrire | Disclaimer

   EN    FR    IT 

 










Légende :    VFR   VFR Marginal   IFR   IFR Intensif   IFR Très Intensif
Visi : 
Plafond : 
>= 8 km
>= 3000ft
5 à 8 km
1000 à 3000 ft
1500m à 5 km
500 à 1000 ft
800 à 1500m
200 à 500 ft
< 800m
< 200 ft
Symboles :   Orages  Brouillard  Fortes neiges  Fortes précipitations  Vent > 20 kt
SIGMETs :   Divers  Orages  Givrage  Turbulence  Onde Orograph.  Cendres Volcan.






- Altitude de l'aérodrome : 171 ft
- Code IATA : EGC


LFBE - Bergerac

DERNIER METAR :
  • 272300Z AUTO 26009KT 7000 -DZ OVC007 13/12 Q1021

METARs EXPIRÉS :
  • 272230Z AUTO 26009KT 4800 -DZ BR OVC006 13/12 Q1021
  • 272200Z AUTO 26009KT 6000 -RADZ OVC008 13/12 Q1021
  • 272130Z AUTO 25006KT 9999 OVC009 13/12 Q1021
  • 272100Z AUTO 26009KT 9999 BKN009 OVC014 13/12 Q1021 TEMPO 0800 DZ FG OVC001
  • 272030Z AUTO 26008KT 9999 OVC006 13/12 Q1021 TEMPO 0800 DZ FG OVC001

TAF TAF LFBE
Valide du 27 à 18h jusqu'au 28 à 18h UTC


271700Z 2718/2818 24010KT 9999 OVC010
TEMPO 2718/2804 2000 -DZ OVC002
PROB30
TEMPO 2720/2804 0800 DZ FG OVC001
BECMG 2806/2808 BKN015
PROB40
TEMPO 2812/2818 4000 -RA BKN010



MET'MAP, la Météo Aéronautique d'un coup d'oeil ! - Copyright ORBIFLY Décembre 2007 - Disclaimer

ORBIFLY MET'MAP TEAM :

Programmation & Développement : Alexandra Zaïnal
Sur une idée originale de : Baudouin d'Aumeries
Assistance à la programmation : Marc-Olivier Méhu
Soutien technique & logistique : Manuel Goepfert

Contact : metmap@orbifly.com




SOURCES & CREDITS :

   NOAA